In Rescue
 
Open Full Screen Window  High Contrast Mode
Wind Gusting 00 knots
06
November 28, 2020 12:59 AM EST
Weather Information
Wind Direction
  270 °
Wind Speed
  06 kt (7 mph)
Wind Gust
  00 kt (0 mph)
Altimeter
29.99 in
Visibility
10 SM
Temperature
-01° C
30° F
Dewpoint
-03° C
27° F
Humidity
86%
1hr Rain Fall
00.00 in.
24hr Rain Fall
00.00 in.
Sky Condition
Scattered @ 5,500 ft
VFR

METAR KOSC 280559Z AUTO 27006KT 10SM SCT055 M01/M03 A2999 RMK AO2 T10111035 10038 21011

FAA Disclaimer: The data displayed is for advisory purposes only and is not to be used for flight planning or operations.